Time;durP1;ratioP1;P1;durP2;ratioP2;P2;SDS_P1;SDS_P2;PMS_P1;PMS_P2;Temp;Humidity;BMP_temperature;BMP_pressure;BME280_temperature;BME280_humidity;BME280_pressure;Samples;Min_cycle;Max_cycle;Signal;HPM_P1;HPM_P2
2022/04/18 00:02:17;;;;;;;7.90;4.87;;;6.60;57.20;;;;;;5018054;28;20235;-69
2022/04/18 00:04:45;;;;;;;9.03;5.10;;;6.60;57.30;;;;;;5017912;28;20633;-70
2022/04/18 00:07:12;;;;;;;6.77;4.70;;;6.60;57.30;;;;;;5017230;28;20617;-69
2022/04/18 00:09:39;;;;;;;7.80;4.47;;;6.60;57.50;;;;;;5017812;28;20261;-70
2022/04/18 00:12:07;;;;;;;7.63;4.20;;;6.50;57.40;;;;;;5017915;28;20299;-69
2022/04/18 00:14:34;;;;;;;6.97;4.30;;;6.50;57.40;;;;;;5017663;28;20230;-69
2022/04/18 00:17:02;;;;;;;6.43;4.63;;;6.40;57.40;;;;;;5017381;28;20252;-69
2022/04/18 00:19:29;;;;;;;8.20;4.67;;;6.40;57.50;;;;;;5017354;28;20316;-69
2022/04/18 00:21:59;;;;;;;8.47;4.07;;;6.40;57.60;;;;;;5016913;28;20223;-69
2022/04/18 00:24:26;;;;;;;5.87;4.27;;;6.30;57.70;;;;;;5017645;28;20313;-69
2022/04/18 00:26:53;;;;;;;9.03;4.83;;;6.30;57.90;;;;;;5017802;28;20207;-69
2022/04/18 00:29:19;;;;;;;7.20;4.40;;;6.30;58.10;;;;;;5017708;28;20230;-69
2022/04/18 00:31:46;;;;;;;9.67;4.93;;;6.30;58.10;;;;;;5017607;28;20264;-69
2022/04/18 00:34:14;;;;;;;6.60;3.97;;;6.30;58.10;;;;;;5016573;28;20290;-68
2022/04/18 00:36:41;;;;;;;6.77;4.00;;;6.20;58.20;;;;;;5016076;28;20616;-69
2022/04/18 00:39:09;;;;;;;8.93;5.70;;;6.20;58.40;;;;;;5016673;28;20293;-68
2022/04/18 00:41:36;;;;;;;6.50;4.47;;;6.20;58.40;;;;;;5017122;28;20243;-68
2022/04/18 00:44:03;;;;;;;6.63;4.60;;;6.10;58.50;;;;;;5017038;28;20233;-68
2022/04/18 00:46:30;;;;;;;6.07;4.23;;;6.10;58.70;;;;;;5016927;28;20282;-69
2022/04/18 00:48:57;;;;;;;8.63;4.00;;;6.10;58.80;;;;;;5016424;28;20636;-69
2022/04/18 00:51:26;;;;;;;7.23;4.17;;;6.10;58.90;;;;;;5015963;28;20196;-69
2022/04/18 00:53:55;;;;;;;7.57;4.37;;;6.00;59.00;;;;;;5017256;28;20311;-68
2022/04/18 00:56:24;;;;;;;6.73;4.10;;;6.00;59.10;;;;;;5016679;28;20715;-68
2022/04/18 00:58:51;;;;;;;6.40;4.40;;;5.90;59.10;;;;;;5016060;28;20207;-69
2022/04/18 01:01:19;;;;;;;8.73;4.03;;;5.90;59.30;;;;;;5016784;28;20273;-68
2022/04/18 01:03:46;;;;;;;6.93;4.30;;;5.90;59.40;;;;;;5016559;28;20287;-68
2022/04/18 01:06:15;;;;;;;7.90;4.57;;;5.80;59.50;;;;;;5016468;28;20245;-68
2022/04/18 01:08:43;;;;;;;7.10;4.87;;;5.80;59.70;;;;;;5015599;28;20212;-69
2022/04/18 01:11:10;;;;;;;6.40;4.27;;;5.80;59.80;;;;;;5016278;28;20210;-69
2022/04/18 01:13:43;;;;;;;8.37;4.80;;;5.80;59.90;;;;;;5016977;28;20745;-69
2022/04/18 01:16:10;;;;;;;11.97;5.13;;;5.80;60.10;;;;;;5016265;28;20566;-68
2022/04/18 01:18:37;;;;;;;5.77;4.10;;;5.70;60.20;;;;;;5016297;28;20607;-69
2022/04/18 01:21:06;;;;;;;7.73;4.30;;;5.70;60.30;;;;;;5015790;28;20625;-69
2022/04/18 01:23:33;;;;;;;7.40;4.80;;;5.70;60.30;;;;;;5015207;28;20234;-68
2022/04/18 01:29:00;;;;;;;6.83;4.20;;;5.70;60.50;;;;;;5016444;28;20185;-68
2022/04/18 01:31:28;;;;;;;5.97;4.63;;;5.70;60.60;;;;;;5016390;28;20281;-69
2022/04/18 01:33:55;;;;;;;8.63;4.30;;;5.70;60.50;;;;;;5016636;28;20286;-69
2022/04/18 01:36:24;;;;;;;8.07;4.77;;;5.70;60.60;;;;;;5015693;28;20213;-68
2022/04/18 01:38:50;;;;;;;7.53;4.60;;;5.70;60.70;;;;;;5016597;28;20202;-68
2022/04/18 01:41:19;;;;;;;7.03;4.30;;;5.70;60.70;;;;;;5016015;28;20250;-68
2022/04/18 01:43:46;;;;;;;7.23;4.67;;;5.70;60.80;;;;;;5015928;28;20204;-68
2022/04/18 01:46:14;;;;;;;7.33;4.80;;;5.70;61.10;;;;;;5016023;28;20204;-69
2022/04/18 01:48:41;;;;;;;8.17;4.20;;;5.70;61.20;;;;;;5015444;28;20290;-69
2022/04/18 01:51:08;;;;;;;9.03;4.37;;;5.70;61.20;;;;;;5014627;28;20199;-68
2022/04/18 01:53:36;;;;;;;8.00;4.70;;;5.70;61.20;;;;;;5015746;28;20205;-68
2022/04/18 01:56:03;;;;;;;7.57;5.00;;;5.70;61.20;;;;;;5014868;28;20211;-69
2022/04/18 01:58:30;;;;;;;6.87;4.67;;;5.70;61.30;;;;;;5014962;28;20282;-69
2022/04/18 02:00:57;;;;;;;7.27;4.77;;;5.70;61.50;;;;;;5015966;28;20203;-69
2022/04/18 02:03:24;;;;;;;8.77;4.77;;;5.70;61.70;;;;;;5014890;28;20652;-69
2022/04/18 02:05:52;;;;;;;9.77;4.43;;;5.70;61.90;;;;;;5014584;28;20233;-69
2022/04/18 02:08:20;;;;;;;8.07;4.57;;;5.70;62.00;;;;;;5014855;28;20238;-69
2022/04/18 02:10:49;;;;;;;7.53;4.63;;;5.70;62.20;;;;;;5015576;28;20214;-68
2022/04/18 02:13:16;;;;;;;7.40;4.73;;;5.70;62.20;;;;;;5015596;28;20404;-69
2022/04/18 02:15:43;;;;;;;8.87;4.90;;;5.70;62.20;;;;;;5015129;28;20236;-68
2022/04/18 02:18:10;;;;;;;8.73;5.00;;;5.70;62.20;;;;;;5014788;28;20203;-68
2022/04/18 02:20:37;;;;;;;8.27;5.30;;;5.70;62.30;;;;;;5014578;28;20246;-68
2022/04/18 02:23:04;;;;;;;7.73;4.70;;;5.70;62.30;;;;;;5015246;28;20751;-69
2022/04/18 02:25:31;;;;;;;8.10;5.13;;;5.70;62.40;;;;;;5015199;28;20233;-69
2022/04/18 02:28:00;;;;;;;5.97;4.20;;;5.70;62.50;;;;;;5015793;28;20203;-68
2022/04/18 02:30:27;;;;;;;6.23;4.27;;;5.70;62.50;;;;;;5015136;28;20199;-68
2022/04/18 02:32:53;;;;;;;7.40;4.97;;;5.70;62.50;;;;;;5014371;28;20227;-68
2022/04/18 02:35:22;;;;;;;7.60;5.00;;;5.70;62.50;;;;;;5014763;28;20613;-68
2022/04/18 02:37:50;;;;;;;9.40;4.40;;;5.70;62.80;;;;;;5015402;28;20286;-69
2022/04/18 02:40:17;;;;;;;9.70;4.77;;;5.70;63.10;;;;;;5014919;28;20247;-69
2022/04/18 02:42:44;;;;;;;7.43;4.70;;;5.70;63.20;;;;;;5015079;28;20206;-69
2022/04/18 02:45:14;;;;;;;8.93;5.43;;;5.60;63.20;;;;;;5015126;28;20227;-68
2022/04/18 02:47:41;;;;;;;5.73;4.33;;;5.50;63.20;;;;;;5015197;28;20199;-70
2022/04/18 02:50:08;;;;;;;8.60;4.80;;;5.50;63.50;;;;;;5015182;28;20344;-69
2022/04/18 02:52:35;;;;;;;10.80;5.20;;;5.40;63.50;;;;;;5014296;28;20207;-69
2022/04/18 02:55:02;;;;;;;9.93;5.20;;;5.40;63.90;;;;;;5015012;28;20196;-68
2022/04/18 02:57:29;;;;;;;9.10;4.80;;;5.30;63.90;;;;;;5014667;28;20241;-69
2022/04/18 02:59:56;;;;;;;8.53;4.63;;;5.30;64.30;;;;;;5014596;28;20242;-69
2022/04/18 03:02:24;;;;;;;10.13;4.77;;;5.30;64.40;;;;;;5015604;28;20207;-69
2022/04/18 03:04:51;;;;;;;7.30;5.10;;;5.20;64.60;;;;;;5018906;28;20250;-69
2022/04/18 03:07:19;;;;;;;8.83;4.97;;;5.10;64.80;;;;;;5018281;28;20209;-68
2022/04/18 03:09:46;;;;;;;7.23;4.40;;;5.10;65.20;;;;;;5018403;28;20303;-69
2022/04/18 03:12:13;;;;;;;9.63;4.87;;;5.00;65.40;;;;;;5017810;28;20203;-68
2022/04/18 03:14:40;;;;;;;6.57;4.17;;;5.00;65.70;;;;;;5018349;28;20234;-69
2022/04/18 03:17:07;;;;;;;8.27;5.07;;;5.00;65.70;;;;;;5018519;28;20242;-68
2022/04/18 03:19:35;;;;;;;8.07;5.00;;;4.90;65.80;;;;;;5019048;28;20315;-68
2022/04/18 03:22:02;;;;;;;6.00;4.20;;;4.90;66.10;;;;;;5018387;28;20233;-69
2022/04/18 03:24:29;;;;;;;6.33;4.33;;;4.80;66.20;;;;;;5019057;28;20227;-69
2022/04/18 03:26:56;;;;;;;7.23;4.70;;;4.70;67.30;;;;;;5018840;28;20254;-68
2022/04/18 03:29:23;;;;;;;6.43;4.37;;;4.70;66.80;;;;;;5018310;28;20258;-68
2022/04/18 03:31:50;;;;;;;6.90;4.33;;;4.70;67.10;;;;;;5018255;28;20629;-69
2022/04/18 03:34:17;;;;;;;8.37;4.43;;;4.70;67.10;;;;;;5018117;28;20689;-68
2022/04/18 03:42:14;;;;;;;7.97;5.00;;;4.60;67.60;;;;;;5017526;28;20186;-68
2022/04/18 03:44:43;;;;;;;9.50;5.03;;;4.60;67.90;;;;;;5017570;28;20233;-69
2022/04/18 03:47:10;;;;;;;7.43;4.43;;;4.60;68.00;;;;;;5018150;28;20254;-69
2022/04/18 03:49:37;;;;;;;7.37;4.70;;;4.50;68.70;;;;;;5017266;28;20218;-68
2022/04/18 03:52:07;;;;;;;6.87;4.50;;;4.50;68.10;;;;;;5017011;28;20294;-69
2022/04/18 03:54:34;;;;;;;7.17;4.37;;;4.50;68.20;;;;;;5017956;28;20693;-68
2022/04/18 03:57:01;;;;;;;5.97;4.83;;;4.50;68.40;;;;;;5017266;28;20203;-68
2022/04/18 03:59:28;;;;;;;6.10;4.63;;;4.50;68.50;;;;;;5017145;28;20298;-69
2022/04/18 04:01:55;;;;;;;6.43;4.63;;;4.50;68.70;;;;;;5017725;28;20290;-69
2022/04/18 04:04:22;;;;;;;7.40;4.43;;;4.50;68.90;;;;;;5017150;28;20672;-69
2022/04/18 04:06:49;;;;;;;8.50;4.80;;;4.50;68.90;;;;;;5017144;28;20239;-68
2022/04/18 04:09:17;;;;;;;8.10;4.93;;;4.50;69.00;;;;;;5017233;28;20211;-68
2022/04/18 04:11:44;;;;;;;6.43;4.40;;;4.60;69.20;;;;;;5017631;28;20209;-68
2022/04/18 04:14:11;;;;;;;8.13;4.80;;;4.60;69.10;;;;;;5017060;28;20257;-68
2022/04/18 04:16:39;;;;;;;5.20;4.07;;;4.60;69.10;;;;;;5017211;28;20645;-68
2022/04/18 04:19:06;;;;;;;6.37;4.20;;;4.60;69.10;;;;;;5016799;28;20206;-68
2022/04/18 04:21:33;;;;;;;8.10;5.03;;;4.50;69.10;;;;;;5016888;28;20287;-68
2022/04/18 04:24:00;;;;;;;5.43;3.77;;;4.60;69.30;;;;;;5016738;28;20252;-68
2022/04/18 04:26:28;;;;;;;9.37;4.93;;;4.50;69.20;;;;;;5017480;28;20686;-68
2022/04/18 04:28:55;;;;;;;9.10;4.30;;;4.60;69.40;;;;;;5017582;28;20295;-68
2022/04/18 04:31:22;;;;;;;4.87;3.83;;;4.60;69.50;;;;;;5016442;28;20298;-68
2022/04/18 04:33:49;;;;;;;5.93;3.97;;;4.60;69.50;;;;;;5016197;28;20200;-68
2022/04/18 04:36:17;;;;;;;5.83;4.07;;;4.70;69.50;;;;;;5017010;28;20216;-69
2022/04/18 04:38:44;;;;;;;7.30;4.50;;;4.60;69.40;;;;;;5016532;28;20237;-68
2022/04/18 04:41:11;;;;;;;8.50;4.40;;;4.70;69.50;;;;;;5016750;28;20243;-68
2022/04/18 04:43:40;;;;;;;8.10;4.43;;;4.80;69.70;;;;;;5017232;28;20218;-69
2022/04/18 04:46:06;;;;;;;5.87;3.97;;;4.80;69.80;;;;;;5016719;28;20664;-68
2022/04/18 04:48:33;;;;;;;7.63;4.73;;;4.90;69.80;;;;;;5017046;28;20198;-68
2022/04/18 04:51:00;;;;;;;7.20;4.40;;;4.90;69.70;;;;;;5016657;28;20231;-68
2022/04/18 04:53:27;;;;;;;6.70;4.53;;;4.90;69.60;;;;;;5016723;28;20206;-68
2022/04/18 04:55:54;;;;;;;6.63;3.87;;;4.90;69.60;;;;;;5016497;28;20250;-68
2022/04/18 04:58:21;;;;;;;6.93;4.23;;;4.90;69.60;;;;;;5016407;28;20722;-69
2022/04/18 05:00:50;;;;;;;5.63;4.10;;;5.00;69.70;;;;;;5016338;28;20211;-68
2022/04/18 05:03:17;;;;;;;6.77;4.10;;;5.10;69.60;;;;;;5016332;28;20672;-68
2022/04/18 05:05:44;;;;;;;6.37;4.10;;;5.10;69.40;;;;;;5015910;28;20227;-68
2022/04/18 05:08:11;;;;;;;5.93;4.23;;;5.10;69.20;;;;;;5016342;28;20293;-68
2022/04/18 05:10:38;;;;;;;7.07;3.80;;;5.10;69.30;;;;;;5014727;28;20314;-69
2022/04/18 05:13:05;;;;;;;7.97;4.40;;;5.10;69.30;;;;;;5015882;28;20661;-68
2022/04/18 05:15:33;;;;;;;6.20;4.03;;;5.20;69.30;;;;;;5015475;28;20207;-68
2022/04/18 05:18:01;;;;;;;9.23;4.37;;;5.20;69.30;;;;;;5015880;28;20207;-69
2022/04/18 05:20:28;;;;;;;8.67;4.43;;;5.30;69.50;;;;;;5015931;28;20271;-68
2022/04/18 05:22:56;;;;;;;6.47;4.17;;;5.30;69.10;;;;;;5015945;28;20573;-68
2022/04/18 05:25:24;;;;;;;5.20;3.63;;;5.40;69.00;;;;;;5015394;28;20223;-68
2022/04/18 05:27:51;;;;;;;5.83;4.13;;;5.40;68.90;;;;;;5016204;28;20227;-69
2022/04/18 05:30:18;;;;;;;8.17;3.93;;;5.50;68.90;;;;;;5016015;28;20199;-68
2022/04/18 05:32:45;;;;;;;5.47;3.77;;;5.60;68.90;;;;;;5015466;28;20238;-69
2022/04/18 05:35:13;;;;;;;7.43;4.33;;;5.80;68.80;;;;;;5016198;28;20307;-69
2022/04/18 05:37:40;;;;;;;8.47;3.90;;;5.80;68.30;;;;;;5015518;28;20231;-69
2022/04/18 05:40:09;;;;;;;8.30;3.93;;;5.90;68.10;;;;;;5015909;28;20302;-70
2022/04/18 05:42:36;;;;;;;4.90;3.57;;;6.00;67.60;;;;;;5015983;28;20612;-69
2022/04/18 05:45:03;;;;;;;6.90;3.70;;;6.10;67.20;;;;;;5015905;28;20238;-68
2022/04/18 05:47:29;;;;;;;7.03;3.63;;;6.10;66.90;;;;;;5015995;28;20207;-71
2022/04/18 05:49:56;;;;;;;7.37;4.40;;;6.30;66.70;;;;;;5014585;28;20199;-69
2022/04/18 05:52:24;;;;;;;4.80;3.17;;;6.30;66.20;;;;;;5014875;28;20207;-68
2022/04/18 05:54:51;;;;;;;5.23;3.27;;;6.50;66.20;;;;;;5015773;28;20239;-69
2022/04/18 05:57:21;;;;;;;5.87;3.77;;;6.50;65.90;;;;;;5015534;28;20286;-69
2022/04/18 05:59:48;;;;;;;5.47;3.07;;;6.60;65.50;;;;;;5015594;28;20206;-68
2022/04/18 06:02:15;;;;;;;4.27;3.10;;;6.70;65.00;;;;;;5014964;28;20657;-69
2022/04/18 06:04:42;;;;;;;5.23;4.07;;;6.80;64.80;;;;;;5015467;28;20213;-68
2022/04/18 06:07:09;;;;;;;4.20;3.10;;;6.90;64.50;;;;;;5015513;28;20692;-69
2022/04/18 06:09:37;;;;;;;7.73;3.37;;;6.90;64.20;;;;;;5015367;28;20294;-69
2022/04/18 06:12:04;;;;;;;6.87;3.67;;;7.00;64.00;;;;;;5015425;28;20239;-68
2022/04/18 06:14:31;;;;;;;5.93;3.60;;;7.10;63.80;;;;;;5015736;28;20294;-69
2022/04/18 06:16:58;;;;;;;4.40;3.30;;;7.20;63.30;;;;;;5015655;28;20233;-69
2022/04/18 06:19:25;;;;;;;5.17;3.37;;;7.20;62.60;;;;;;5015231;28;20207;-68
2022/04/18 06:21:52;;;;;;;5.33;3.10;;;7.30;62.50;;;;;;5014748;28;20338;-69
2022/04/18 06:24:19;;;;;;;5.13;3.13;;;7.30;62.10;;;;;;5015131;28;20211;-69
2022/04/18 06:26:48;;;;;;;5.30;3.30;;;7.40;61.90;;;;;;5015506;28;20286;-68
2022/04/18 06:29:14;;;;;;;5.50;3.07;;;7.50;61.70;;;;;;5015809;28;20290;-69
2022/04/18 06:31:41;;;;;;;3.33;2.67;;;7.50;61.50;;;;;;5014586;28;20210;-69
2022/04/18 06:34:08;;;;;;;7.57;3.13;;;7.60;61.20;;;;;;5015538;28;20682;-69
2022/04/18 06:36:35;;;;;;;6.80;3.10;;;7.70;61.50;;;;;;5015216;28;20657;-69
2022/04/18 06:39:02;;;;;;;5.73;2.97;;;7.70;60.30;;;;;;5015508;28;20218;-69
2022/04/18 06:41:30;;;;;;;4.00;2.80;;;7.80;60.10;;;;;;5015850;28;20243;-69
2022/04/18 06:43:58;;;;;;;3.60;2.50;;;7.90;59.90;;;;;;5015834;28;20207;-68
2022/04/18 06:46:25;;;;;;;3.60;2.70;;;7.90;59.40;;;;;;5015267;28;20263;-68
2022/04/18 06:48:52;;;;;;;4.30;2.70;;;8.10;59.10;;;;;;5015732;28;20210;-69
2022/04/18 06:51:19;;;;;;;3.97;2.60;;;8.20;58.80;;;;;;5014613;28;20246;-68
2022/04/18 06:53:45;;;;;;;3.07;2.77;;;8.30;58.80;;;;;;5016467;28;20629;-70
2022/04/18 06:58:58;;;;;;;4.00;3.17;;;8.50;57.70;;;;;;5015952;28;20182;-69
2022/04/18 07:01:25;;;;;;;3.07;2.57;;;8.50;57.60;;;;;;5016960;28;20226;-68
2022/04/18 07:03:52;;;;;;;4.63;3.00;;;8.60;58.20;;;;;;5016615;28;20720;-69
2022/04/18 07:06:19;;;;;;;3.50;2.53;;;8.70;57.60;;;;;;5015368;28;20309;-69
2022/04/18 07:08:46;;;;;;;5.30;2.63;;;8.90;57.30;;;;;;5014823;28;20211;-69
2022/04/18 07:11:13;;;;;;;3.87;2.50;;;9.00;56.90;;;;;;5015575;28;20202;-69
2022/04/18 07:13:40;;;;;;;4.10;2.27;;;9.20;56.40;;;;;;5015532;28;20207;-69
2022/04/18 07:16:08;;;;;;;5.83;2.30;;;9.20;55.40;;;;;;5014578;28;20200;-68
2022/04/18 07:18:35;;;;;;;3.87;2.23;;;9.30;55.10;;;;;;5015223;28;20204;-70
2022/04/18 07:21:03;;;;;;;3.43;1.90;;;9.40;54.50;;;;;;5055090;23;20263;-68
2022/04/18 07:23:30;;;;;;;4.27;2.07;;;9.50;54.30;;;;;;4995506;28;20685;-68
2022/04/18 07:25:57;;;;;;;3.37;2.07;;;9.60;54.30;;;;;;5000310;28;20228;-68
2022/04/18 07:28:24;;;;;;;2.20;1.60;;;9.80;53.80;;;;;;4998706;28;20195;-68
2022/04/18 07:30:51;;;;;;;3.43;1.90;;;9.80;53.10;;;;;;4995592;28;20218;-68
2022/04/18 07:33:19;;;;;;;1.90;1.70;;;10.00;51.60;;;;;;4995162;28;20239;-69
2022/04/18 07:35:46;;;;;;;2.10;1.60;;;9.90;52.20;;;;;;4995646;28;20937;-68
2022/04/18 07:41:04;;;;;;;2.77;1.50;;;10.10;50.30;;;;;;4995448;28;20244;-70
2022/04/18 07:43:32;;;;;;;1.87;1.57;;;10.20;50.10;;;;;;4995325;28;20232;-68
2022/04/18 07:45:58;;;;;;;1.97;1.30;;;10.40;49.90;;;;;;4994985;28;20219;-69
2022/04/18 07:48:26;;;;;;;1.43;1.30;;;10.50;49.40;;;;;;4995117;28;20215;-67
2022/04/18 07:53:38;;;;;;;1.87;1.30;;;10.40;47.90;;;;;;4997975;28;20584;-70
2022/04/18 07:56:05;;;;;;;1.73;1.10;;;10.50;47.90;;;;;;4998506;28;20231;-69
2022/04/18 07:58:31;;;;;;;1.63;1.10;;;10.50;47.50;;;;;;5000301;28;20212;-68
2022/04/18 08:00:58;;;;;;;2.37;1.07;;;10.60;47.50;;;;;;5000151;28;20194;-69
2022/04/18 08:03:27;;;;;;;1.50;1.07;;;10.90;47.80;;;;;;5000497;28;20204;-69
2022/04/18 08:05:56;;;;;;;2.07;0.90;;;11.00;47.40;;;;;;4999830;28;20207;-68
2022/04/18 08:08:23;;;;;;;1.10;0.97;;;11.30;47.20;;;;;;4998708;28;20208;-68
2022/04/18 08:10:50;;;;;;;2.90;0.90;;;11.40;46.40;;;;;;5000015;28;20577;-70
2022/04/18 08:13:17;;;;;;;0.93;0.80;;;11.60;45.60;;;;;;4999170;28;20208;-68
2022/04/18 08:15:44;;;;;;;1.23;1.13;;;11.80;45.10;;;;;;4998822;28;20731;-69
2022/04/18 08:18:11;;;;;;;1.60;0.90;;;11.90;45.00;;;;;;4998550;28;20207;-69
2022/04/18 08:20:40;;;;;;;0.57;0.57;;;12.00;43.80;;;;;;4998133;28;20231;-69
2022/04/18 08:23:07;;;;;;;1.17;0.50;;;12.10;43.20;;;;;;4998972;28;20193;-68
2022/04/18 08:25:33;;;;;;;0.70;0.70;;;12.00;42.80;;;;;;4999228;28;20635;-69
2022/04/18 08:28:00;;;;;;;1.27;1.00;;;12.10;42.70;;;;;;4999235;28;20238;-68
2022/04/18 08:30:28;;;;;;;1.53;0.90;;;12.10;42.40;;;;;;4997785;28;20665;-69
2022/04/18 08:32:55;;;;;;;1.60;0.90;;;12.20;42.20;;;;;;4998251;28;20227;-69
2022/04/18 08:35:22;;;;;;;1.83;1.10;;;12.30;41.70;;;;;;4998088;28;20212;-69
2022/04/18 08:37:50;;;;;;;1.13;0.93;;;12.30;41.50;;;;;;4998436;28;20207;-68
2022/04/18 08:40:17;;;;;;;0.80;0.80;;;12.50;41.70;;;;;;4998323;28;20644;-69
2022/04/18 08:42:45;;;;;;;1.03;0.80;;;12.50;41.20;;;;;;4997359;28;20204;-69
2022/04/18 08:45:13;;;;;;;0.83;0.83;;;12.60;40.80;;;;;;4997699;28;20196;-70
2022/04/18 08:53:15;;;;;;;1.30;0.63;;;13.00;41.30;;;;;;4990045;28;20164;-69
2022/04/18 08:55:45;;;;;;;0.77;0.60;;;13.00;40.50;;;;;;4996895;28;20191;-71
2022/04/18 08:58:15;;;;;;;1.10;0.60;;;13.20;40.40;;;;;;5000406;28;20205;-70
2022/04/18 09:00:43;;;;;;;2.03;0.80;;;13.50;40.40;;;;;;4999798;28;20181;-71
2022/04/18 09:03:10;;;;;;;1.30;0.83;;;13.60;40.00;;;;;;4986322;28;20260;-69
2022/04/18 09:05:46;;;;;;;1.23;0.83;;;13.80;39.80;;;;;;4996473;28;20204;-71
2022/04/18 09:08:22;;;;;;;1.80;0.80;;;14.00;39.50;;;;;;4998726;28;20232;-71
2022/04/18 09:10:50;;;;;;;1.30;0.80;;;14.20;39.20;;;;;;4979469;28;20192;-70
2022/04/18 09:13:16;;;;;;;1.70;1.00;;;14.40;39.10;;;;;;4978100;28;20200;-70
2022/04/18 09:15:46;;;;;;;3.53;0.80;;;14.40;38.80;;;;;;4977402;28;20224;-69
2022/04/18 09:18:15;;;;;;;0.80;0.70;;;14.50;39.00;;;;;;4978086;28;20288;-70
2022/04/18 09:20:44;;;;;;;0.70;0.70;;;14.50;38.40;;;;;;4994664;28;20228;-69
2022/04/18 09:23:27;;;;;;;0.97;0.70;;;14.60;38.20;;;;;;4996464;28;20307;-69
2022/04/18 09:25:56;;;;;;;0.77;0.73;;;14.70;37.60;;;;;;4997214;28;20228;-68
2022/04/18 09:28:25;;;;;;;0.83;0.80;;;14.80;37.60;;;;;;4996545;28;20247;-69
2022/04/18 09:31:00;;;;;;;1.00;0.90;;;15.00;37.50;;;;;;4996241;28;20238;-68
2022/04/18 09:33:31;;;;;;;1.00;0.90;;;15.20;37.40;;;;;;4997053;28;20290;-69
2022/04/18 09:36:11;;;;;;;0.83;0.63;;;15.20;37.10;;;;;;4996812;28;20255;-69
2022/04/18 09:41:15;;;;;;;1.00;0.90;;;15.20;36.10;;;;;;4989632;28;20220;-69
2022/04/18 09:43:44;;;;;;;1.03;0.90;;;15.10;35.90;;;;;;4978047;28;20200;-68
2022/04/18 09:46:12;;;;;;;0.67;0.53;;;14.90;35.60;;;;;;4979814;28;20514;-69
2022/04/18 09:48:40;;;;;;;1.03;0.87;;;14.90;35.90;;;;;;4978061;28;20205;-69
2022/04/18 09:51:09;;;;;;;0.80;0.60;;;14.90;35.90;;;;;;4977734;28;20245;-70
2022/04/18 09:53:37;;;;;;;1.07;0.80;;;15.10;36.50;;;;;;4977651;28;20208;-69
2022/04/18 09:56:05;;;;;;;1.20;1.10;;;15.40;36.50;;;;;;4977646;28;20212;-68
2022/04/18 09:58:35;;;;;;;0.60;0.60;;;15.60;36.20;;;;;;4977257;28;20204;-68
2022/04/18 10:01:04;;;;;;;0.83;0.80;;;15.80;35.60;;;;;;4977405;28;20208;-70
2022/04/18 10:03:32;;;;;;;1.33;0.90;;;15.70;35.40;;;;;;4976934;28;20215;-69
2022/04/18 10:06:01;;;;;;;0.80;0.70;;;15.60;35.60;;;;;;4975974;28;20200;-69
2022/04/18 10:08:29;;;;;;;2.77;0.77;;;15.70;35.70;;;;;;4977000;28;20239;-69
2022/04/18 10:10:58;;;;;;;1.07;0.50;;;15.60;35.70;;;;;;4976692;28;20209;-68
2022/04/18 10:13:25;;;;;;;1.37;0.80;;;15.70;35.80;;;;;;4976616;28;20206;-68
2022/04/18 10:15:55;;;;;;;0.90;0.90;;;15.70;35.80;;;;;;4976755;28;20201;-69
2022/04/18 10:18:23;;;;;;;1.10;0.77;;;15.80;36.50;;;;;;4976485;28;20208;-68
2022/04/18 10:21:03;;;;;;;1.80;0.97;;;15.90;36.30;;;;;;4975969;28;20279;-69
2022/04/18 10:23:45;;;;;;;1.47;0.87;;;16.10;36.10;;;;;;4975975;28;20538;-67
2022/04/18 10:27:02;;;;;;;0.93;0.50;;;16.30;36.10;;;;;;4976171;28;20614;-68
2022/04/18 10:29:33;;;;;;;1.27;0.68;;;16.60;35.60;;;;;;4975782;28;20240;-68
2022/04/18 10:32:03;;;;;;;1.67;0.70;;;16.70;35.20;;;;;;4975719;28;20556;-69
2022/04/18 10:34:32;;;;;;;1.33;0.90;;;16.90;35.30;;;;;;4976188;28;20215;-69
2022/04/18 10:37:02;;;;;;;0.77;0.70;;;16.90;34.90;;;;;;4976748;28;20209;-67
2022/04/18 10:39:34;;;;;;;1.77;0.60;;;16.90;34.90;;;;;;4977836;28;20276;-67
2022/04/18 10:42:19;;;;;;;1.07;1.00;;;17.00;35.00;;;;;;4976765;28;20189;-68
2022/04/18 10:44:58;;;;;;;0.77;0.75;;;17.20;34.80;;;;;;4976688;28;20200;-70
2022/04/18 10:47:27;;;;;;;1.15;0.98;;;17.30;34.60;;;;;;4977800;28;20216;-68
2022/04/18 10:50:25;;;;;;;1.38;0.90;;;17.50;34.60;;;;;;4975948;28;20223;-69
2022/04/18 10:53:15;;;;;;;1.40;0.88;;;17.30;34.10;;;;;;4897390;29;20299;-69
2022/04/18 10:56:14;;;;;;;0.75;0.70;;;17.20;34.50;;;;;;4970945;28;20670;-68
2022/04/18 10:58:45;;;;;;;1.00;0.80;;;17.20;34.60;;;;;;4976557;28;20189;-69
2022/04/18 11:01:12;;;;;;;1.35;0.90;;;17.10;34.10;;;;;;4975070;28;20192;-68
2022/04/18 11:03:46;;;;;;;1.27;0.82;;;17.00;34.10;;;;;;4957137;29;20671;-68
2022/04/18 11:06:44;;;;;;;1.55;0.73;;;17.00;34.40;;;;;;4956565;29;20197;-69
2022/04/18 11:09:13;;;;;;;1.60;0.80;;;17.20;34.40;;;;;;4956457;29;20194;-68
2022/04/18 11:11:44;;;;;;;1.58;0.90;;;17.40;34.20;;;;;;4956445;29;20229;-68
2022/04/18 11:14:18;;;;;;;1.30;0.80;;;17.50;33.90;;;;;;4956209;29;20260;-70
2022/04/18 11:16:51;;;;;;;1.00;0.90;;;17.70;34.20;;;;;;4956735;29;20189;-67
2022/04/18 11:19:22;;;;;;;1.00;0.80;;;17.70;33.90;;;;;;4956816;28;20298;-69
2022/04/18 11:22:16;;;;;;;1.17;0.80;;;17.80;34.00;;;;;;4955723;29;20261;-69
2022/04/18 11:24:45;;;;;;;0.88;0.77;;;17.90;34.00;;;;;;4959298;28;20283;-69
2022/04/18 11:27:14;;;;;;;1.42;1.10;;;18.10;34.20;;;;;;4960270;29;20237;-69
2022/04/18 11:29:43;;;;;;;1.73;1.10;;;18.10;33.50;;;;;;4959960;29;20646;-69
2022/04/18 11:32:15;;;;;;;0.90;0.82;;;17.90;33.10;;;;;;4959709;28;20202;-69
2022/04/18 11:34:46;;;;;;;0.93;0.70;;;17.80;33.00;;;;;;4960259;29;20190;-68
2022/04/18 11:37:21;;;;;;;0.82;0.75;;;17.80;33.10;;;;;;4959447;29;20246;-68
2022/04/18 11:39:50;;;;;;;1.77;1.00;;;18.00;33.30;;;;;;4959006;29;20330;-68
2022/04/18 11:42:18;;;;;;;1.90;0.80;;;17.90;32.80;;;;;;4959649;29;20205;-68
2022/04/18 11:44:46;;;;;;;2.05;1.00;;;17.60;32.60;;;;;;4960018;29;20260;-68
2022/04/18 11:47:15;;;;;;;1.15;0.98;;;17.60;32.80;;;;;;4959536;29;20281;-68
2022/04/18 11:49:45;;;;;;;1.95;0.95;;;17.60;33.00;;;;;;4960004;29;20296;-68
2022/04/18 11:52:19;;;;;;;0.80;0.80;;;17.60;33.10;;;;;;4960501;29;20193;-67
2022/04/18 11:54:58;;;;;;;1.40;1.15;;;17.70;32.80;;;;;;4959636;29;20229;-68
2022/04/18 11:57:25;;;;;;;1.27;1.00;;;17.70;32.80;;;;;;4958902;29;20248;-68
2022/04/18 11:59:52;;;;;;;0.63;0.63;;;17.80;32.70;;;;;;4959389;29;20269;-68
2022/04/18 12:08:02;;;;;;;0.80;0.63;;;17.20;32.20;;;;;;4978914;28;20219;-68
2022/04/18 12:10:31;;;;;;;1.13;1.00;;;17.00;32.50;;;;;;4978300;28;20240;-68
2022/04/18 12:13:00;;;;;;;1.30;0.88;;;16.80;32.40;;;;;;4978684;28;20259;-68
2022/04/18 12:15:29;;;;;;;0.73;0.70;;;16.80;32.70;;;;;;4978282;28;20576;-69
2022/04/18 12:17:57;;;;;;;1.08;0.82;;;16.90;33.30;;;;;;4978988;28;20565;-69
2022/04/18 12:20:28;;;;;;;2.17;1.02;;;17.10;32.70;;;;;;4978621;28;20292;-69
2022/04/18 12:22:58;;;;;;;2.35;1.10;;;17.20;32.20;;;;;;4978530;28;20228;-68
2022/04/18 12:25:27;;;;;;;1.38;1.08;;;17.50;32.20;;;;;;4978529;28;20200;-67
2022/04/18 12:27:54;;;;;;;1.10;1.00;;;17.60;32.00;;;;;;4978465;28;20724;-68
2022/04/18 12:30:22;;;;;;;2.65;1.30;;;17.70;31.90;;;;;;4977998;28;20236;-68
2022/04/18 12:32:49;;;;;;;1.85;1.00;;;17.80;31.60;;;;;;4977274;28;20232;-68
2022/04/18 12:35:34;;;;;;;1.00;0.80;;;17.90;31.80;;;;;;4977717;28;20212;-70
2022/04/18 12:38:04;;;;;;;2.70;1.08;;;18.00;31.50;;;;;;4977673;28;20252;-68
2022/04/18 12:40:36;;;;;;;1.10;1.00;;;17.90;30.90;;;;;;4977840;28;20721;-68
2022/04/18 12:43:07;;;;;;;1.42;1.10;;;17.70;30.80;;;;;;4978221;28;20263;-69
2022/04/18 12:45:49;;;;;;;1.30;1.17;;;17.50;31.10;;;;;;4977535;28;20205;-65
2022/04/18 12:48:21;;;;;;;2.33;0.93;;;17.40;31.40;;;;;;4978668;28;20213;-65
2022/04/18 12:50:49;;;;;;;1.35;1.25;;;17.40;31.50;;;;;;4978119;28;20201;-65
2022/04/18 12:53:17;;;;;;;2.85;1.23;;;17.50;31.70;;;;;;4977059;28;20239;-65
2022/04/18 12:55:44;;;;;;;2.08;1.00;;;17.50;31.50;;;;;;4978176;28;20236;-65
2022/04/18 12:58:16;;;;;;;2.50;1.10;;;17.60;31.50;;;;;;4978348;28;20232;-65
2022/04/18 13:00:46;;;;;;;1.13;0.80;;;17.70;31.80;;;;;;4978802;28;20640;-65
2022/04/18 13:03:14;;;;;;;1.98;1.00;;;17.70;31.70;;;;;;4978081;28;20204;-65
2022/04/18 13:05:44;;;;;;;1.15;1.05;;;17.80;32.00;;;;;;4978249;28;20256;-64
2022/04/18 13:08:11;;;;;;;4.90;1.08;;;17.90;31.60;;;;;;4978031;28;20228;-65
2022/04/18 13:10:40;;;;;;;1.48;1.05;;;17.80;31.60;;;;;;4978465;28;20209;-65
2022/04/18 13:13:09;;;;;;;1.35;0.80;;;17.60;31.30;;;;;;4977862;28;20670;-64
2022/04/18 13:15:36;;;;;;;1.33;0.75;;;17.60;31.60;;;;;;4977812;28;20236;-65
2022/04/18 13:18:07;;;;;;;0.85;0.70;;;17.50;32.00;;;;;;4978101;28;20201;-66
2022/04/18 13:20:35;;;;;;;1.00;0.90;;;17.70;32.00;;;;;;4977651;28;20232;-65
2022/04/18 13:23:03;;;;;;;1.38;1.00;;;17.80;32.00;;;;;;4977475;28;20299;-65
2022/04/18 13:25:30;;;;;;;1.30;1.10;;;17.80;31.90;;;;;;4978103;28;20212;-65
2022/04/18 13:28:01;;;;;;;3.13;0.98;;;17.80;32.00;;;;;;4977922;28;20671;-64
2022/04/18 13:30:28;;;;;;;2.10;1.08;;;18.00;32.20;;;;;;4977585;28;20200;-65
2022/04/18 13:32:55;;;;;;;1.77;1.10;;;18.00;31.90;;;;;;4977350;28;20295;-65